< < Back
Terminal Aerodrome Forecast


Current Version              Previous Versions:   1  2  3  4  5  6  7  8  9  

Terminal Aerodrome Forecast

313
FTUS42 KFFC 292100 AAB
TAFFTY
TAF AMD
KFTY 292131Z 2922/3018 32008KT P6SM FEW015 SCT021 BKN050
      TEMPO 2922/2923 BKN021 BKN050
     FM300000 33006KT P6SM SCT100
     FM300600 33005KT P6SM SKC=

Latest METAR

697
SAUS70 KWBC 301400 RRJ
MTRFTY
METAR KFTY 301353Z 09003KT 10SM CLR 10/07 A3010 RMK AO2 SLP192
T01000067


USA.gov is the U.S. government's official web portal to all federal, state and local government web resources and services.